createdAt,value
2023-10-25T00:01:12.478Z,87.42
2023-10-25T00:03:42.053Z,87.56
2023-10-25T00:06:11.482Z,87.23
2023-10-25T00:08:40.635Z,87.39
2023-10-25T00:11:11.034Z,88.33
2023-10-25T00:13:40.276Z,87.81
2023-10-25T00:16:16.785Z,87.69
2023-10-25T00:18:48.047Z,87.46
2023-10-25T00:21:17.703Z,87.54
2023-10-25T00:23:46.782Z,87.46
2023-10-25T00:26:16.153Z,87.37
2023-10-25T00:28:52.249Z,87.53
2023-10-25T00:31:23.453Z,87.27
2023-10-25T00:33:53.197Z,87.31
2023-10-25T00:36:22.674Z,87.73
2023-10-25T00:38:51.870Z,87.43
2023-10-25T00:41:21.287Z,87.28
2023-10-25T00:43:50.608Z,88.43
2023-10-25T00:46:25.937Z,87.67
2023-10-25T00:48:56.743Z,87.38
2023-10-25T00:51:27.855Z,87.63
2023-10-25T00:53:58.654Z,87.45
2023-10-25T00:56:29.297Z,87.83
2023-10-25T00:59:00.143Z,87.40
2023-10-25T01:01:32.064Z,88.33
2023-10-25T01:04:01.308Z,87.67
2023-10-25T01:06:30.992Z,87.51
2023-10-25T01:09:01.279Z,87.41
2023-10-25T01:11:31.091Z,87.48
2023-10-25T01:14:00.292Z,87.44
2023-10-25T01:16:31.669Z,87.55
2023-10-25T01:19:00.807Z,87.50
2023-10-25T01:21:30.522Z,87.44
2023-10-25T01:24:01.017Z,87.52
2023-10-25T01:26:30.579Z,87.21
2023-10-25T01:28:59.985Z,87.35
2023-10-25T01:31:29.556Z,88.07
2023-10-25T01:33:58.733Z,87.87
2023-10-25T01:36:28.444Z,88.05
2023-10-25T01:38:59.309Z,87.65
2023-10-25T01:41:28.780Z,87.56
2023-10-25T01:43:58.082Z,87.60
2023-10-25T01:46:27.665Z,88.01
2023-10-25T01:48:56.808Z,88.30
2023-10-25T01:51:26.914Z,87.93
2023-10-25T01:53:56.023Z,87.90
2023-10-25T01:56:26.857Z,87.76
2023-10-25T01:58:56.171Z,87.97
2023-10-25T02:01:25.689Z,87.84
2023-10-25T02:03:55.106Z,87.96
2023-10-25T02:06:24.701Z,87.90
2023-10-25T02:08:53.830Z,87.94
2023-10-25T02:11:23.560Z,88.80
2023-10-25T02:13:53.997Z,88.92
2023-10-25T02:16:24.627Z,88.21
2023-10-25T02:18:54.104Z,88.31
2023-10-25T02:21:23.483Z,89.23
2023-10-25T02:23:54.421Z,89.80
2023-10-25T02:26:24.929Z,90.31
2023-10-25T02:28:57.440Z,88.95
2023-10-25T02:31:27.228Z,89.10
2023-10-25T02:33:56.889Z,90.37
2023-10-25T02:36:26.829Z,89.43
2023-10-25T02:38:55.964Z,89.58
2023-10-25T02:41:25.365Z,88.98
2023-10-25T02:43:55.120Z,89.09
2023-10-25T02:46:26.551Z,88.98
2023-10-25T02:48:55.874Z,88.84
2023-10-25T02:51:25.079Z,89.79
2023-10-25T02:53:55.354Z,89.48
2023-10-25T02:56:25.238Z,89.46
2023-10-25T02:58:54.333Z,89.78
2023-10-25T03:01:26.457Z,89.62
2023-10-25T03:03:55.866Z,90.67
2023-10-25T03:06:25.129Z,91.16
2023-10-25T03:08:54.959Z,90.09
2023-10-25T03:11:24.586Z,89.65
2023-10-25T03:13:53.723Z,89.37
2023-10-25T03:16:23.278Z,89.58
2023-10-25T03:18:54.019Z,89.81
2023-10-25T03:21:24.459Z,91.05
2023-10-25T03:23:53.649Z,91.29
2023-10-25T03:26:23.039Z,92.32
2023-10-25T03:28:53.740Z,92.05
2023-10-25T03:31:32.027Z,90.78
2023-10-25T03:34:04.892Z,92.17
2023-10-25T03:36:34.536Z,91.83
2023-10-25T03:39:03.861Z,90.89
2023-10-25T03:41:33.023Z,91.33
2023-10-25T03:44:02.245Z,90.74
2023-10-25T03:46:31.718Z,90.63
2023-10-25T03:49:00.883Z,90.42
2023-10-25T03:51:32.408Z,91.83
2023-10-25T03:54:01.554Z,92.26
2023-10-25T03:56:30.829Z,91.41
2023-10-25T03:59:00.008Z,91.06
2023-10-25T04:01:29.388Z,90.59
2023-10-25T04:03:58.591Z,91.74
2023-10-25T04:06:27.851Z,91.23
2023-10-25T04:08:58.322Z,90.96
2023-10-25T04:11:27.852Z,90.87
2023-10-25T04:13:56.959Z,91.22
2023-10-25T04:16:26.867Z,91.10
2023-10-25T04:18:56.900Z,90.41
2023-10-25T04:21:26.614Z,90.40
2023-10-25T04:23:57.212Z,90.46
2023-10-25T04:26:26.677Z,90.37
2023-10-25T04:28:55.906Z,90.73
2023-10-25T04:31:25.221Z,92.65
2023-10-25T04:33:54.444Z,91.42
2023-10-25T04:36:23.948Z,91.04
2023-10-25T04:38:53.170Z,91.39
2023-10-25T04:41:23.944Z,91.19
2023-10-25T04:43:53.109Z,91.05
2023-10-25T04:46:22.574Z,91.00
2023-10-25T04:48:51.842Z,91.05
2023-10-25T04:51:21.205Z,91.38
2023-10-25T04:53:50.263Z,91.46
2023-10-25T04:56:25.810Z,93.59
2023-10-25T04:58:54.971Z,91.86
2023-10-25T05:01:24.470Z,91.34
2023-10-25T05:03:53.741Z,90.91
2023-10-25T05:06:23.329Z,91.93
2023-10-25T05:08:53.137Z,91.49
2023-10-25T05:11:30.133Z,91.15
2023-10-25T05:14:00.370Z,91.27
2023-10-25T05:16:30.415Z,91.38
2023-10-25T05:19:00.284Z,90.76
2023-10-25T05:21:31.797Z,91.60
2023-10-25T05:24:01.522Z,91.19
2023-10-25T05:26:35.376Z,92.62
2023-10-25T05:29:07.258Z,91.18
2023-10-25T05:31:42.813Z,91.37
2023-10-25T05:34:13.069Z,93.04
2023-10-25T05:36:43.084Z,91.68
2023-10-25T05:39:12.909Z,91.64
2023-10-25T05:41:44.714Z,91.31
2023-10-25T05:44:17.638Z,90.84
2023-10-25T05:46:48.376Z,92.08
2023-10-25T05:49:20.271Z,91.56
2023-10-25T05:51:50.608Z,92.59
2023-10-25T05:54:21.039Z,91.98
2023-10-25T05:56:52.383Z,91.06
2023-10-25T05:59:22.288Z,92.87
2023-10-25T06:01:55.931Z,91.76
2023-10-25T06:04:28.554Z,91.88
2023-10-25T06:06:58.747Z,91.26
2023-10-25T06:09:28.611Z,91.23
2023-10-25T06:12:00.249Z,92.18
2023-10-25T06:14:31.127Z,92.22
2023-10-25T06:17:03.570Z,92.19
2023-10-25T06:19:33.250Z,92.05
2023-10-25T06:22:02.945Z,92.34
2023-10-25T06:24:32.055Z,91.95
2023-10-25T06:27:02.758Z,91.81
2023-10-25T06:29:32.500Z,91.75
2023-10-25T06:32:02.156Z,91.94
2023-10-25T06:34:31.428Z,92.53
2023-10-25T06:37:01.904Z,92.90
2023-10-25T06:39:31.980Z,91.57
2023-10-25T06:42:04.053Z,91.81
2023-10-25T06:44:35.355Z,92.44
2023-10-25T06:47:07.493Z,92.34
2023-10-25T06:49:37.469Z,92.87
2023-10-25T06:52:07.860Z,93.18
2023-10-25T06:54:37.918Z,93.74
2023-10-25T06:57:10.159Z,93.25
2023-10-25T06:59:41.239Z,93.00
2023-10-25T07:02:34.808Z,93.09
2023-10-25T07:05:11.288Z,92.70
2023-10-25T07:07:42.246Z,93.35
2023-10-25T07:10:12.742Z,92.26
2023-10-25T07:12:43.922Z,92.79
2023-10-25T07:15:13.582Z,92.34
2023-10-25T07:17:43.721Z,92.08
2023-10-25T07:20:14.032Z,92.09
2023-10-25T07:22:43.853Z,92.71
2023-10-25T07:25:13.026Z,93.15
2023-10-25T07:27:43.707Z,93.60
2023-10-25T07:30:13.308Z,93.29
2023-10-25T07:32:42.944Z,93.70
2023-10-25T07:35:12.598Z,94.23
2023-10-25T07:37:42.130Z,94.37
2023-10-25T07:40:12.333Z,92.69
2023-10-25T07:42:43.331Z,93.76
2023-10-25T07:45:13.025Z,93.49
2023-10-25T07:47:42.500Z,93.86
2023-10-25T07:50:11.934Z,93.18
2023-10-25T07:52:41.346Z,93.05
2023-10-25T07:55:42.048Z,94.67
2023-10-25T08:00:34.184Z,93.09
2023-10-25T08:03:03.729Z,93.90
2023-10-25T08:05:32.938Z,94.36
2023-10-25T08:08:02.714Z,93.14
2023-10-25T08:10:31.796Z,93.34
2023-10-25T08:13:02.661Z,93.61
2023-10-25T08:15:31.873Z,94.20
2023-10-25T08:18:01.698Z,94.15
2023-10-25T08:20:31.141Z,94.75
2023-10-25T08:23:00.880Z,95.53
2023-10-25T08:25:30.057Z,93.93
2023-10-25T08:27:59.288Z,94.36
2023-10-25T08:30:30.905Z,94.45
2023-10-25T08:33:00.620Z,94.58
2023-10-25T08:35:30.650Z,94.40
2023-10-25T08:38:00.153Z,94.50
2023-10-25T08:40:29.504Z,94.36
2023-10-25T08:43:00.194Z,95.11
2023-10-25T08:45:34.141Z,94.97
2023-10-25T08:48:04.430Z,94.61
2023-10-25T08:50:33.935Z,94.86
2023-10-25T08:53:03.458Z,96.49
2023-10-25T08:55:32.748Z,95.09
2023-10-25T08:58:01.902Z,94.42
2023-10-25T09:00:47.345Z,94.52
2023-10-25T09:03:41.937Z,94.17
2023-10-25T09:06:12.667Z,94.02
2023-10-25T09:08:44.861Z,94.14
2023-10-25T09:11:14.712Z,93.77
2023-10-25T09:13:44.331Z,94.89
2023-10-25T09:16:17.843Z,93.93
2023-10-25T09:18:47.439Z,93.37
2023-10-25T09:21:16.708Z,93.49
2023-10-25T09:23:58.391Z,94.36
2023-10-25T09:26:27.929Z,93.69
2023-10-25T09:28:57.312Z,94.00
2023-10-25T09:31:30.747Z,93.78
2023-10-25T09:34:02.061Z,94.45
2023-10-25T09:36:31.462Z,93.51
2023-10-25T09:39:00.857Z,93.25
2023-10-25T09:41:33.321Z,94.32
2023-10-25T09:44:07.514Z,93.57
2023-10-25T09:46:38.741Z,93.77
2023-10-25T09:49:09.263Z,94.33
2023-10-25T09:52:07.115Z,94.05
2023-10-25T09:54:38.138Z,94.65
2023-10-25T09:57:07.742Z,94.67
2023-10-25T09:59:39.675Z,94.38
2023-10-25T10:02:15.159Z,93.64
2023-10-25T10:04:52.148Z,93.89
2023-10-25T10:07:38.554Z,93.82
2023-10-25T10:10:20.088Z,93.95
2023-10-25T10:12:49.608Z,94.23
2023-10-25T10:15:20.794Z,94.20
2023-10-25T10:17:51.467Z,93.43
2023-10-25T10:20:30.539Z,93.19
2023-10-25T10:23:07.464Z,94.21
2023-10-25T10:25:47.670Z,93.68
2023-10-25T10:28:17.660Z,93.97
2023-10-25T10:30:48.903Z,94.00
2023-10-25T10:33:19.808Z,93.41
2023-10-25T10:35:50.552Z,93.31
2023-10-25T10:38:19.946Z,92.99
2023-10-25T10:40:52.903Z,93.44
2023-10-25T10:43:22.556Z,93.10
2023-10-25T10:45:54.849Z,93.63
2023-10-25T10:48:33.626Z,93.53
2023-10-25T10:51:03.795Z,93.51
2023-10-25T10:53:33.041Z,93.69
2023-10-25T10:56:02.630Z,93.64
2023-10-25T10:58:31.982Z,93.34
2023-10-25T11:01:01.733Z,92.84
2023-10-25T11:03:32.948Z,92.75
2023-10-25T11:06:07.063Z,93.27
2023-10-25T11:08:36.504Z,92.78
2023-10-25T11:11:05.965Z,93.15
2023-10-25T11:13:35.389Z,93.22
2023-10-25T11:16:08.356Z,93.04
2023-10-25T11:18:39.272Z,92.63
2023-10-25T11:21:08.721Z,92.14
2023-10-25T11:23:38.732Z,93.32
2023-10-25T11:26:08.621Z,92.79
2023-10-25T11:28:40.492Z,93.27
2023-10-25T11:31:10.025Z,92.69
2023-10-25T11:33:49.765Z,92.60
2023-10-25T11:36:19.825Z,92.42
2023-10-25T11:38:49.014Z,92.91
2023-10-25T11:41:18.438Z,92.46
2023-10-25T11:43:47.624Z,93.17
2023-10-25T11:46:17.860Z,92.55
2023-10-25T11:48:50.639Z,92.75
2023-10-25T11:51:21.051Z,92.33
2023-10-25T11:53:50.463Z,92.39
2023-10-25T11:56:23.077Z,92.62
2023-10-25T11:58:52.475Z,92.56
2023-10-25T12:01:22.287Z,93.35
2023-10-25T12:03:52.976Z,92.48
2023-10-25T12:06:23.032Z,92.36
2023-10-25T12:08:52.982Z,92.76
2023-10-25T12:11:22.764Z,92.19
2023-10-25T12:13:51.723Z,92.71
2023-10-25T12:16:21.361Z,92.62
2023-10-25T12:18:51.984Z,92.90
2023-10-25T12:21:21.894Z,92.60
2023-10-25T12:23:50.993Z,92.03
2023-10-25T12:26:20.963Z,92.56
2023-10-25T12:28:49.923Z,92.38
2023-10-25T12:31:19.295Z,92.32
2023-10-25T12:33:48.564Z,92.47
2023-10-25T12:36:19.422Z,92.31
2023-10-25T12:38:49.810Z,92.06
2023-10-25T12:41:19.324Z,92.68
2023-10-25T12:43:49.178Z,92.13
2023-10-25T12:46:18.893Z,91.79
2023-10-25T12:48:48.026Z,91.61
2023-10-25T12:51:19.161Z,91.53
2023-10-25T12:53:48.361Z,92.34
2023-10-25T12:56:17.831Z,92.25
2023-10-25T12:58:47.106Z,92.10
2023-10-25T13:01:16.503Z,92.25
2023-10-25T13:03:48.020Z,92.05
2023-10-25T13:06:19.584Z,92.10
2023-10-25T13:08:49.236Z,92.32
2023-10-25T13:11:18.764Z,91.66
2023-10-25T13:13:47.815Z,92.19
2023-10-25T13:16:17.380Z,91.74
2023-10-25T13:18:46.528Z,92.32
2023-10-25T13:21:15.932Z,91.86
2023-10-25T13:23:46.569Z,92.17
2023-10-25T13:26:16.108Z,92.63
2023-10-25T13:28:45.366Z,91.81
2023-10-25T13:31:14.734Z,92.93
2023-10-25T13:33:44.049Z,92.43
2023-10-25T13:36:13.344Z,91.57
2023-10-25T13:38:42.446Z,91.46
2023-10-25T13:41:13.179Z,91.39
2023-10-25T13:43:42.288Z,91.15
2023-10-25T13:46:11.687Z,91.04
2023-10-25T13:48:42.668Z,91.31
2023-10-25T13:51:12.215Z,90.98
2023-10-25T13:53:41.454Z,90.88
2023-10-25T13:56:18.404Z,91.32
2023-10-25T13:58:47.618Z,92.18
2023-10-25T14:01:17.104Z,91.25
2023-10-25T14:03:46.427Z,91.77
2023-10-25T14:06:18.528Z,91.08
2023-10-25T14:08:47.769Z,91.19
2023-10-25T14:11:19.946Z,90.87
2023-10-25T14:13:51.405Z,90.94
2023-10-25T14:16:20.992Z,91.03
2023-10-25T14:18:50.464Z,91.17
2023-10-25T14:21:19.932Z,90.82
2023-10-25T14:23:49.909Z,90.78
2023-10-25T14:26:21.535Z,91.08
2023-10-25T14:28:50.829Z,90.84
2023-10-25T14:31:20.314Z,90.93
2023-10-25T14:33:49.554Z,90.83
2023-10-25T14:36:19.155Z,90.69
2023-10-25T14:38:49.554Z,91.47
2023-10-25T14:41:20.447Z,91.33
2023-10-25T14:43:50.660Z,91.03
2023-10-25T14:46:21.132Z,91.03
2023-10-25T14:48:51.125Z,91.19
2023-10-25T14:51:27.342Z,91.75
2023-10-25T14:53:59.019Z,91.50
2023-10-25T14:56:30.039Z,92.08
2023-10-25T14:58:59.274Z,91.50
2023-10-25T15:01:29.150Z,92.50
2023-10-25T15:03:58.345Z,92.03
2023-10-25T15:06:29.823Z,92.27
2023-10-25T15:08:59.691Z,91.72
2023-10-25T15:11:31.137Z,92.41
2023-10-25T15:14:00.312Z,93.07
2023-10-25T15:16:29.757Z,91.92
2023-10-25T15:18:58.929Z,92.56
2023-10-25T15:21:29.409Z,92.25
2023-10-25T15:23:59.032Z,92.46
2023-10-25T15:26:28.591Z,91.92
2023-10-25T15:29:00.478Z,92.50
2023-10-25T15:31:30.021Z,91.66
2023-10-25T15:34:00.588Z,91.16
2023-10-25T15:36:31.729Z,91.60
2023-10-25T15:39:08.928Z,91.54
2023-10-25T15:41:40.333Z,91.91
2023-10-25T15:44:10.988Z,92.67
2023-10-25T15:46:40.625Z,92.24
2023-10-25T15:49:09.763Z,92.24
2023-10-25T15:51:39.739Z,91.87
2023-10-25T15:54:08.908Z,91.87
2023-10-25T15:56:38.514Z,92.96
2023-10-25T15:59:08.015Z,93.12
2023-10-25T16:04:13.955Z,92.75
2023-10-25T16:06:43.858Z,93.47
2023-10-25T16:09:13.007Z,92.33
2023-10-25T16:11:42.711Z,93.02
2023-10-25T16:14:11.853Z,93.00
2023-10-25T16:16:42.663Z,93.05
2023-10-25T16:19:11.906Z,92.72
2023-10-25T16:21:42.475Z,92.38
2023-10-25T16:24:12.006Z,92.90
2023-10-25T16:26:41.261Z,92.41
2023-10-25T16:29:10.698Z,92.29
2023-10-25T16:31:41.573Z,91.75
2023-10-25T16:34:15.515Z,91.94
2023-10-25T16:36:57.197Z,91.69
2023-10-25T16:39:33.837Z,91.69
2023-10-25T16:42:03.438Z,91.63
2023-10-25T16:44:32.885Z,92.07
2023-10-25T16:47:07.433Z,91.87
2023-10-25T16:49:36.818Z,91.56
2023-10-25T16:52:06.584Z,91.51
2023-10-25T16:54:35.802Z,91.18
2023-10-25T16:57:05.523Z,91.49
2023-10-25T16:59:34.660Z,91.42
2023-10-25T17:02:08.207Z,91.29
2023-10-25T17:04:37.577Z,91.48
2023-10-25T17:07:06.961Z,91.40
2023-10-25T17:09:36.308Z,91.34
2023-10-25T17:12:07.374Z,91.19
2023-10-25T17:14:36.691Z,91.45
2023-10-25T17:17:07.645Z,91.50
2023-10-25T17:19:37.043Z,91.67
2023-10-25T17:22:06.818Z,91.56
2023-10-25T17:24:36.712Z,91.43
2023-10-25T17:27:06.802Z,92.94
2023-10-25T17:29:36.085Z,93.50
2023-10-25T17:32:07.333Z,92.80
2023-10-25T17:34:37.014Z,92.77
2023-10-25T17:37:06.741Z,92.34
2023-10-25T17:39:36.014Z,92.97
2023-10-25T17:42:06.225Z,92.08
2023-10-25T17:44:36.352Z,92.14
2023-10-25T17:47:07.627Z,91.89
2023-10-25T17:49:36.877Z,92.15
2023-10-25T17:52:06.577Z,92.42
2023-10-25T17:54:36.035Z,92.14
2023-10-25T17:57:07.589Z,92.15
2023-10-25T17:59:38.445Z,91.85
2023-10-25T18:02:09.311Z,92.33
2023-10-25T18:04:38.676Z,91.99
2023-10-25T18:07:08.972Z,91.69
2023-10-25T18:09:38.275Z,91.58
2023-10-25T18:12:08.042Z,91.38
2023-10-25T18:14:38.901Z,92.05
2023-10-25T18:17:09.787Z,92.00
2023-10-25T18:19:39.211Z,92.16
2023-10-25T18:22:08.727Z,91.65
2023-10-25T18:24:37.987Z,91.57
2023-10-25T18:27:07.596Z,91.82
2023-10-25T18:30:01.982Z,92.02
2023-10-25T18:32:29.033Z,92.78
2023-10-25T18:34:59.075Z,92.04
2023-10-25T18:37:29.107Z,91.62
2023-10-25T18:39:59.816Z,91.44
2023-10-25T18:42:31.262Z,91.37
2023-10-25T18:45:05.034Z,91.49
2023-10-25T18:47:37.745Z,91.23
2023-10-25T18:50:07.639Z,92.60
2023-10-25T18:52:39.998Z,92.11
2023-10-25T18:55:09.386Z,92.15
2023-10-25T18:57:41.687Z,91.66
2023-10-25T19:00:13.040Z,91.50
2023-10-25T19:02:45.855Z,92.68
2023-10-25T19:06:23.198Z,92.47
2023-10-25T19:08:26.699Z,91.96
2023-10-25T19:10:54.553Z,91.93
2023-10-25T19:13:25.157Z,91.63
2023-10-25T19:15:54.441Z,92.62
2023-10-25T19:18:25.549Z,91.74
2023-10-25T19:20:57.934Z,92.76
2023-10-25T19:23:27.774Z,91.94
2023-10-25T19:25:56.978Z,92.71
2023-10-25T19:28:26.574Z,92.04
2023-10-25T19:30:56.876Z,91.84
2023-10-25T19:33:29.054Z,91.88
2023-10-25T19:35:58.680Z,93.25
2023-10-25T19:38:28.731Z,92.73
2023-10-25T19:40:58.406Z,93.02
2023-10-25T19:43:27.839Z,91.91
2023-10-25T19:45:56.996Z,91.94
2023-10-25T19:48:27.866Z,93.28
2023-10-25T19:50:57.087Z,93.32
2023-10-25T19:53:26.501Z,92.90
2023-10-25T19:55:55.850Z,92.22
2023-10-25T19:58:26.856Z,91.76
2023-10-25T20:00:58.429Z,92.96
2023-10-25T20:03:29.330Z,92.70
2023-10-25T20:06:07.380Z,93.20
2023-10-25T20:08:37.511Z,93.66
2023-10-25T20:11:07.168Z,92.96
2023-10-25T20:13:40.001Z,92.64
2023-10-25T20:16:18.215Z,92.81
2023-10-25T20:18:57.101Z,92.16
2023-10-25T20:21:34.302Z,92.20
2023-10-25T20:24:13.875Z,92.24
2023-10-25T20:27:00.277Z,91.62
2023-10-25T20:29:31.446Z,92.16
2023-10-25T20:32:20.898Z,92.05
2023-10-25T20:35:11.961Z,92.28
2023-10-25T20:37:53.676Z,91.72
2023-10-25T20:40:27.123Z,90.89
2023-10-25T20:43:05.851Z,90.96
2023-10-25T20:45:53.936Z,90.76
2023-10-25T20:48:46.773Z,90.75
2023-10-25T20:51:38.702Z,90.50
2023-10-25T20:54:08.099Z,90.37
2023-10-25T20:56:37.300Z,90.52
2023-10-25T20:59:06.540Z,90.40
2023-10-25T21:01:35.850Z,90.55
2023-10-25T21:04:05.103Z,90.93
2023-10-25T21:06:36.301Z,90.53
2023-10-25T21:09:07.582Z,90.38
2023-10-25T21:11:37.290Z,90.54
2023-10-25T21:14:06.554Z,90.51
2023-10-25T21:16:35.698Z,90.07
2023-10-25T21:19:06.636Z,89.98
2023-10-25T21:21:37.548Z,90.02
2023-10-25T21:24:07.816Z,90.11
2023-10-25T21:26:38.449Z,91.09
2023-10-25T21:29:11.281Z,90.43
2023-10-25T21:31:41.212Z,90.29
2023-10-25T21:34:10.443Z,90.86
2023-10-25T21:36:41.189Z,90.68
2023-10-25T21:39:10.491Z,90.13
2023-10-25T21:41:40.348Z,90.11
2023-10-25T21:44:09.393Z,90.40
2023-10-25T21:46:38.758Z,89.97
2023-10-25T21:49:07.919Z,90.01
2023-10-25T21:51:37.457Z,90.07
2023-10-25T21:54:08.413Z,90.07
2023-10-25T21:56:37.970Z,89.99
2023-10-25T21:59:50.674Z,89.97
2023-10-25T22:01:57.238Z,90.66
2023-10-25T22:04:26.359Z,90.60
2023-10-25T22:09:49.620Z,90.30
2023-10-25T22:12:19.985Z,90.10
2023-10-25T22:14:49.254Z,90.29
2023-10-25T22:17:26.711Z,90.14
2023-10-25T22:19:55.846Z,90.20
2023-10-25T22:22:25.254Z,89.89
2023-10-25T22:24:55.808Z,89.91
2023-10-25T22:27:25.278Z,90.79
2023-10-25T22:29:54.412Z,90.15
2023-10-25T22:32:23.921Z,90.24
2023-10-25T22:34:55.835Z,89.89
2023-10-25T22:37:25.327Z,90.08
2023-10-25T22:39:55.846Z,89.87
2023-10-25T22:42:25.870Z,89.92
2023-10-25T22:44:54.751Z,89.76
2023-10-25T22:47:24.339Z,89.71
2023-10-25T22:49:53.459Z,89.76
2023-10-25T22:52:22.911Z,89.76
2023-10-25T22:54:51.967Z,89.83
2023-10-25T22:57:22.829Z,89.98
2023-10-25T22:59:53.795Z,89.94
2023-10-25T23:02:23.367Z,89.77
2023-10-25T23:04:52.522Z,89.77
2023-10-25T23:07:21.814Z,89.75
2023-10-25T23:09:51.060Z,89.74
2023-10-25T23:12:21.936Z,89.77
2023-10-25T23:14:51.175Z,89.83
2023-10-25T23:17:20.545Z,89.86
2023-10-25T23:19:49.810Z,89.84
2023-10-25T23:22:20.881Z,89.88
2023-10-25T23:24:50.193Z,89.92
2023-10-25T23:27:21.052Z,89.81
2023-10-25T23:29:52.149Z,89.69
2023-10-25T23:32:21.831Z,89.65
2023-10-25T23:34:50.942Z,89.82
2023-10-25T23:37:20.412Z,89.61
2023-10-25T23:39:49.589Z,89.75
2023-10-25T23:42:18.991Z,89.63
2023-10-25T23:44:49.851Z,89.66
2023-10-25T23:47:19.547Z,89.65
2023-10-25T23:49:48.768Z,89.54
2023-10-25T23:52:18.131Z,89.78
2023-10-25T23:54:54.052Z,89.67
2023-10-25T23:57:25.660Z,89.63
2023-10-25T23:59:56.415Z,89.67
